Hauptseite
METAR-TAF:

METAR-TAF

Flughäfen :

Flughafen Waterloo

Waterloo, Ontario, Kanada

Breite: 43-28N, Länge: 080-23W, Höhe: 317 m

Beobachtung

Neuester Wetterbericht von vor 1 Stunde und 4 Minuten, um 02:00 UTC
Wind 9 kt aus Süd
Temperatur 23°C
Luftfeuchtigkeit 69%
Luftdruck 1014 hPa
Sichtweite: 14.5 km
Himmel klar

METAR: CYKF 250200Z AUTO 19009KT 9SM CLR 23/17 A2995 RMK SLP137 DENSITY ALT 2100FT

Zeit: 23:04 (03:04 UTC)

Prognose

Neuester Wetterbericht von vor 1 Stunde und 26 Minuten, um 01:38 UTC
Gültige Prognose vom 25 um 02 UTC bis 25 um 14 UTC
Wind 8 kt aus Süd
Sichtweite: 10 km
Aufgelockert bewölkt in der Höhe von 2000 ft
Durchbrochene Bewölkung in der Höhe von 3000 ft

TAF: CYKF 250138Z 2502/2514 19008KT P6SM SCT020 BKN030 RMK FCST BASED ON AUTO OBS. NXT FCST BY 250800Z

Wetterbeobachtungen und Prognosen von mehr als 4000 Flughäfen (METAR und TAF Bericht).

Die verfügbaren Stationen werden durch gelbe und rote Markierungen auf der Karte dargestellt.

Führen Sie die Maus auf sie, um den Namen der Station zu sehen.

Darauf klicken, um die Beobachtung von Wetterbeobachtungen und Prognosen zu sehen.

Um die Karte zu ändern : klicken Sie auf den grünen Tasten mit einem schwarzen Kreuz Zum Vergrößern, auf den grünen Button mit einem Gedankenstrich zu verkleinern, oder auf die grünen Pfeile für benachbarte Karten.


METAR-TAF: